sensor_id;sensor_type;location;lat;lon;timestamp;P1;durP1;ratioP1;P2;durP2;ratioP2
16300;SDS011;8258;51.020;4.248;2023-06-10T00:01:23;0.00;;;0.00;;
16300;SDS011;8258;51.020;4.248;2023-06-10T00:03:51;0.00;;;0.00;;
16300;SDS011;8258;51.020;4.248;2023-06-10T00:06:18;0.00;;;0.00;;
16300;SDS011;8258;51.020;4.248;2023-06-10T00:08:46;0.00;;;0.00;;
16300;SDS011;8258;51.020;4.248;2023-06-10T00:11:13;0.00;;;0.00;;
16300;SDS011;8258;51.020;4.248;2023-06-10T00:13:40;0.00;;;0.00;;
16300;SDS011;8258;51.020;4.248;2023-06-10T00:16:07;0.00;;;0.00;;
16300;SDS011;8258;51.020;4.248;2023-06-10T00:18:35;0.00;;;0.00;;
16300;SDS011;8258;51.020;4.248;2023-06-10T00:21:05;0.00;;;0.00;;
16300;SDS011;8258;51.020;4.248;2023-06-10T00:23:31;0.00;;;0.00;;
16300;SDS011;8258;51.020;4.248;2023-06-10T00:26:03;0.47;;;0.47;;
16300;SDS011;8258;51.020;4.248;2023-06-10T00:28:30;0.00;;;0.00;;
16300;SDS011;8258;51.020;4.248;2023-06-10T00:30:57;0.00;;;0.00;;
16300;SDS011;8258;51.020;4.248;2023-06-10T00:33:24;0.00;;;0.00;;
16300;SDS011;8258;51.020;4.248;2023-06-10T00:35:51;0.00;;;0.00;;
16300;SDS011;8258;51.020;4.248;2023-06-10T00:38:19;0.00;;;0.00;;
16300;SDS011;8258;51.020;4.248;2023-06-10T00:40:46;0.10;;;0.10;;
16300;SDS011;8258;51.020;4.248;2023-06-10T00:43:13;0.00;;;0.00;;
16300;SDS011;8258;51.020;4.248;2023-06-10T00:45:40;0.00;;;0.00;;
16300;SDS011;8258;51.020;4.248;2023-06-10T00:48:07;0.00;;;0.00;;
16300;SDS011;8258;51.020;4.248;2023-06-10T00:50:34;0.00;;;0.00;;
16300;SDS011;8258;51.020;4.248;2023-06-10T00:53:04;0.10;;;0.10;;
16300;SDS011;8258;51.020;4.248;2023-06-10T00:55:33;0.00;;;0.00;;
16300;SDS011;8258;51.020;4.248;2023-06-10T00:58:00;0.00;;;0.00;;
16300;SDS011;8258;51.020;4.248;2023-06-10T01:00:29;0.00;;;0.00;;
16300;SDS011;8258;51.020;4.248;2023-06-10T01:02:56;0.00;;;0.00;;
16300;SDS011;8258;51.020;4.248;2023-06-10T01:05:23;0.00;;;0.00;;
16300;SDS011;8258;51.020;4.248;2023-06-10T01:07:54;0.00;;;0.00;;
16300;SDS011;8258;51.020;4.248;2023-06-10T01:10:29;0.00;;;0.00;;
16300;SDS011;8258;51.020;4.248;2023-06-10T01:13:00;0.00;;;0.00;;
16300;SDS011;8258;51.020;4.248;2023-06-10T01:15:28;0.10;;;0.10;;
16300;SDS011;8258;51.020;4.248;2023-06-10T01:17:56;0.07;;;0.07;;
16300;SDS011;8258;51.020;4.248;2023-06-10T01:20:25;0.00;;;0.00;;
16300;SDS011;8258;51.020;4.248;2023-06-10T01:22:55;0.00;;;0.00;;
16300;SDS011;8258;51.020;4.248;2023-06-10T01:25:23;0.00;;;0.00;;
16300;SDS011;8258;51.020;4.248;2023-06-10T01:27:53;0.00;;;0.00;;
16300;SDS011;8258;51.020;4.248;2023-06-10T01:30:26;0.00;;;0.00;;
16300;SDS011;8258;51.020;4.248;2023-06-10T01:32:55;0.00;;;0.00;;
16300;SDS011;8258;51.020;4.248;2023-06-10T01:35:25;0.00;;;0.00;;
16300;SDS011;8258;51.020;4.248;2023-06-10T01:37:56;0.00;;;0.00;;
16300;SDS011;8258;51.020;4.248;2023-06-10T01:40:24;0.00;;;0.00;;
16300;SDS011;8258;51.020;4.248;2023-06-10T01:42:52;0.00;;;0.00;;
16300;SDS011;8258;51.020;4.248;2023-06-10T01:45:19;0.00;;;0.00;;
16300;SDS011;8258;51.020;4.248;2023-06-10T01:47:46;0.00;;;0.00;;
16300;SDS011;8258;51.020;4.248;2023-06-10T01:50:13;0.00;;;0.00;;
16300;SDS011;8258;51.020;4.248;2023-06-10T01:52:41;0.00;;;0.00;;
16300;SDS011;8258;51.020;4.248;2023-06-10T01:55:09;0.00;;;0.00;;
16300;SDS011;8258;51.020;4.248;2023-06-10T01:57:36;0.00;;;0.00;;
16300;SDS011;8258;51.020;4.248;2023-06-10T02:00:03;0.00;;;0.00;;
16300;SDS011;8258;51.020;4.248;2023-06-10T02:02:31;0.00;;;0.00;;
16300;SDS011;8258;51.020;4.248;2023-06-10T02:04:58;1.07;;;0.97;;
16300;SDS011;8258;51.020;4.248;2023-06-10T02:07:25;0.00;;;0.00;;
16300;SDS011;8258;51.020;4.248;2023-06-10T02:09:52;0.00;;;0.00;;
16300;SDS011;8258;51.020;4.248;2023-06-10T02:12:20;0.00;;;0.00;;
16300;SDS011;8258;51.020;4.248;2023-06-10T02:14:47;0.00;;;0.00;;
16300;SDS011;8258;51.020;4.248;2023-06-10T02:17:15;0.00;;;0.00;;
16300;SDS011;8258;51.020;4.248;2023-06-10T02:19:43;0.00;;;0.00;;
16300;SDS011;8258;51.020;4.248;2023-06-10T02:22:17;0.00;;;0.00;;
16300;SDS011;8258;51.020;4.248;2023-06-10T02:24:45;0.67;;;0.67;;
16300;SDS011;8258;51.020;4.248;2023-06-10T02:27:12;0.83;;;0.83;;
16300;SDS011;8258;51.020;4.248;2023-06-10T02:29:41;0.00;;;0.00;;
16300;SDS011;8258;51.020;4.248;2023-06-10T02:32:08;0.00;;;0.00;;
16300;SDS011;8258;51.020;4.248;2023-06-10T02:34:35;0.00;;;0.00;;
16300;SDS011;8258;51.020;4.248;2023-06-10T02:37:02;0.00;;;0.00;;
16300;SDS011;8258;51.020;4.248;2023-06-10T02:39:30;0.00;;;0.00;;
16300;SDS011;8258;51.020;4.248;2023-06-10T02:41:57;0.00;;;0.00;;
16300;SDS011;8258;51.020;4.248;2023-06-10T02:44:24;0.00;;;0.00;;
16300;SDS011;8258;51.020;4.248;2023-06-10T02:46:52;0.00;;;0.00;;
16300;SDS011;8258;51.020;4.248;2023-06-10T02:49:19;0.00;;;0.00;;
16300;SDS011;8258;51.020;4.248;2023-06-10T02:51:46;0.00;;;0.00;;
16300;SDS011;8258;51.020;4.248;2023-06-10T02:54:13;0.00;;;0.00;;
16300;SDS011;8258;51.020;4.248;2023-06-10T02:56:41;0.00;;;0.00;;
16300;SDS011;8258;51.020;4.248;2023-06-10T02:59:08;0.73;;;0.17;;
16300;SDS011;8258;51.020;4.248;2023-06-10T03:01:35;0.00;;;0.00;;
16300;SDS011;8258;51.020;4.248;2023-06-10T03:04:04;0.00;;;0.00;;
16300;SDS011;8258;51.020;4.248;2023-06-10T03:06:31;0.00;;;0.00;;
16300;SDS011;8258;51.020;4.248;2023-06-10T03:09:00;0.00;;;0.00;;
16300;SDS011;8258;51.020;4.248;2023-06-10T03:11:29;0.00;;;0.00;;
16300;SDS011;8258;51.020;4.248;2023-06-10T03:13:56;0.00;;;0.00;;
16300;SDS011;8258;51.020;4.248;2023-06-10T03:16:23;0.00;;;0.00;;
16300;SDS011;8258;51.020;4.248;2023-06-10T03:18:52;0.00;;;0.00;;
16300;SDS011;8258;51.020;4.248;2023-06-10T03:21:20;0.00;;;0.00;;
16300;SDS011;8258;51.020;4.248;2023-06-10T03:23:48;0.93;;;0.93;;
16300;SDS011;8258;51.020;4.248;2023-06-10T03:26:14;0.00;;;0.00;;
16300;SDS011;8258;51.020;4.248;2023-06-10T03:28:41;0.00;;;0.00;;
16300;SDS011;8258;51.020;4.248;2023-06-10T03:31:08;0.00;;;0.00;;
16300;SDS011;8258;51.020;4.248;2023-06-10T03:33:35;0.00;;;0.00;;
16300;SDS011;8258;51.020;4.248;2023-06-10T03:36:02;0.00;;;0.00;;
16300;SDS011;8258;51.020;4.248;2023-06-10T03:38:31;0.00;;;0.00;;
16300;SDS011;8258;51.020;4.248;2023-06-10T03:40:58;0.00;;;0.00;;
16300;SDS011;8258;51.020;4.248;2023-06-10T03:43:25;0.00;;;0.00;;
16300;SDS011;8258;51.020;4.248;2023-06-10T03:45:52;0.00;;;0.00;;
16300;SDS011;8258;51.020;4.248;2023-06-10T03:48:19;1.03;;;0.53;;
16300;SDS011;8258;51.020;4.248;2023-06-10T03:50:46;0.00;;;0.00;;
16300;SDS011;8258;51.020;4.248;2023-06-10T03:53:15;0.00;;;0.00;;
16300;SDS011;8258;51.020;4.248;2023-06-10T03:55:44;0.00;;;0.00;;
16300;SDS011;8258;51.020;4.248;2023-06-10T03:58:11;0.00;;;0.00;;
16300;SDS011;8258;51.020;4.248;2023-06-10T04:00:39;0.00;;;0.00;;
16300;SDS011;8258;51.020;4.248;2023-06-10T04:03:07;0.00;;;0.00;;
16300;SDS011;8258;51.020;4.248;2023-06-10T04:05:39;0.00;;;0.00;;
16300;SDS011;8258;51.020;4.248;2023-06-10T04:08:07;0.10;;;0.10;;
16300;SDS011;8258;51.020;4.248;2023-06-10T04:10:35;0.00;;;0.00;;
16300;SDS011;8258;51.020;4.248;2023-06-10T04:13:03;0.00;;;0.00;;
16300;SDS011;8258;51.020;4.248;2023-06-10T04:15:30;0.00;;;0.00;;
16300;SDS011;8258;51.020;4.248;2023-06-10T04:17:58;0.00;;;0.00;;
16300;SDS011;8258;51.020;4.248;2023-06-10T04:20:26;0.00;;;0.00;;
16300;SDS011;8258;51.020;4.248;2023-06-10T04:22:53;0.00;;;0.00;;
16300;SDS011;8258;51.020;4.248;2023-06-10T04:25:20;0.00;;;0.00;;
16300;SDS011;8258;51.020;4.248;2023-06-10T04:27:48;0.00;;;0.00;;
16300;SDS011;8258;51.020;4.248;2023-06-10T04:30:16;0.00;;;0.00;;
16300;SDS011;8258;51.020;4.248;2023-06-10T04:32:43;0.00;;;0.00;;
16300;SDS011;8258;51.020;4.248;2023-06-10T04:35:11;0.00;;;0.00;;
16300;SDS011;8258;51.020;4.248;2023-06-10T04:37:39;0.37;;;0.37;;
16300;SDS011;8258;51.020;4.248;2023-06-10T04:40:06;0.00;;;0.00;;
16300;SDS011;8258;51.020;4.248;2023-06-10T04:42:34;0.00;;;0.00;;
16300;SDS011;8258;51.020;4.248;2023-06-10T04:45:01;0.00;;;0.00;;
16300;SDS011;8258;51.020;4.248;2023-06-10T04:47:30;0.00;;;0.00;;
16300;SDS011;8258;51.020;4.248;2023-06-10T04:49:58;0.00;;;0.00;;
16300;SDS011;8258;51.020;4.248;2023-06-10T04:52:25;0.00;;;0.00;;
16300;SDS011;8258;51.020;4.248;2023-06-10T04:54:52;0.10;;;0.10;;
16300;SDS011;8258;51.020;4.248;2023-06-10T04:57:19;0.00;;;0.00;;
16300;SDS011;8258;51.020;4.248;2023-06-10T04:59:46;0.00;;;0.00;;
16300;SDS011;8258;51.020;4.248;2023-06-10T05:02:13;0.00;;;0.00;;
16300;SDS011;8258;51.020;4.248;2023-06-10T05:04:41;0.00;;;0.00;;
16300;SDS011;8258;51.020;4.248;2023-06-10T05:07:08;0.00;;;0.00;;
16300;SDS011;8258;51.020;4.248;2023-06-10T05:09:35;0.00;;;0.00;;
16300;SDS011;8258;51.020;4.248;2023-06-10T05:12:02;0.00;;;0.00;;
16300;SDS011;8258;51.020;4.248;2023-06-10T05:14:30;0.00;;;0.00;;
16300;SDS011;8258;51.020;4.248;2023-06-10T05:16:57;0.00;;;0.00;;
16300;SDS011;8258;51.020;4.248;2023-06-10T05:19:24;0.13;;;0.13;;
16300;SDS011;8258;51.020;4.248;2023-06-10T05:21:53;0.00;;;0.00;;
16300;SDS011;8258;51.020;4.248;2023-06-10T05:24:20;0.13;;;0.13;;
16300;SDS011;8258;51.020;4.248;2023-06-10T05:26:48;0.00;;;0.00;;
16300;SDS011;8258;51.020;4.248;2023-06-10T05:29:15;0.70;;;0.70;;
16300;SDS011;8258;51.020;4.248;2023-06-10T05:31:42;0.00;;;0.00;;
16300;SDS011;8258;51.020;4.248;2023-06-10T05:34:09;0.10;;;0.10;;
16300;SDS011;8258;51.020;4.248;2023-06-10T05:36:35;0.60;;;0.60;;
16300;SDS011;8258;51.020;4.248;2023-06-10T05:39:04;0.00;;;0.00;;
16300;SDS011;8258;51.020;4.248;2023-06-10T05:41:31;0.10;;;0.10;;
16300;SDS011;8258;51.020;4.248;2023-06-10T05:43:58;0.20;;;0.20;;
16300;SDS011;8258;51.020;4.248;2023-06-10T05:46:25;0.20;;;0.20;;
16300;SDS011;8258;51.020;4.248;2023-06-10T05:48:52;0.13;;;0.13;;
16300;SDS011;8258;51.020;4.248;2023-06-10T05:51:18;1.20;;;1.03;;
16300;SDS011;8258;51.020;4.248;2023-06-10T05:53:45;0.17;;;0.17;;
16300;SDS011;8258;51.020;4.248;2023-06-10T05:56:14;0.47;;;0.47;;
16300;SDS011;8258;51.020;4.248;2023-06-10T05:58:41;0.20;;;0.20;;
16300;SDS011;8258;51.020;4.248;2023-06-10T06:01:08;0.30;;;0.30;;
16300;SDS011;8258;51.020;4.248;2023-06-10T06:03:35;0.10;;;0.10;;
16300;SDS011;8258;51.020;4.248;2023-06-10T06:06:02;0.47;;;0.47;;
16300;SDS011;8258;51.020;4.248;2023-06-10T06:08:29;0.37;;;0.37;;
16300;SDS011;8258;51.020;4.248;2023-06-10T06:10:56;1.33;;;1.20;;
16300;SDS011;8258;51.020;4.248;2023-06-10T06:13:25;0.10;;;0.10;;
16300;SDS011;8258;51.020;4.248;2023-06-10T06:15:51;0.00;;;0.00;;
16300;SDS011;8258;51.020;4.248;2023-06-10T06:18:18;0.90;;;0.47;;
16300;SDS011;8258;51.020;4.248;2023-06-10T06:20:45;0.00;;;0.00;;
16300;SDS011;8258;51.020;4.248;2023-06-10T06:23:12;0.20;;;0.20;;
16300;SDS011;8258;51.020;4.248;2023-06-10T06:25:39;1.40;;;0.73;;
16300;SDS011;8258;51.020;4.248;2023-06-10T06:28:06;1.07;;;1.07;;
16300;SDS011;8258;51.020;4.248;2023-06-10T06:30:35;0.50;;;0.50;;
16300;SDS011;8258;51.020;4.248;2023-06-10T06:33:05;0.00;;;0.00;;
16300;SDS011;8258;51.020;4.248;2023-06-10T06:35:32;0.40;;;0.40;;
16300;SDS011;8258;51.020;4.248;2023-06-10T06:37:59;0.77;;;0.77;;
16300;SDS011;8258;51.020;4.248;2023-06-10T06:40:26;0.50;;;0.50;;
16300;SDS011;8258;51.020;4.248;2023-06-10T06:42:53;2.00;;;0.77;;
16300;SDS011;8258;51.020;4.248;2023-06-10T06:45:20;0.00;;;0.00;;
16300;SDS011;8258;51.020;4.248;2023-06-10T06:47:48;0.00;;;0.00;;
16300;SDS011;8258;51.020;4.248;2023-06-10T06:50:16;1.17;;;1.17;;
16300;SDS011;8258;51.020;4.248;2023-06-10T06:52:44;1.50;;;0.80;;
16300;SDS011;8258;51.020;4.248;2023-06-10T06:55:11;0.43;;;0.43;;
16300;SDS011;8258;51.020;4.248;2023-06-10T06:57:38;0.00;;;0.00;;
16300;SDS011;8258;51.020;4.248;2023-06-10T07:00:05;0.30;;;0.30;;
16300;SDS011;8258;51.020;4.248;2023-06-10T07:02:34;0.10;;;0.10;;
16300;SDS011;8258;51.020;4.248;2023-06-10T07:05:02;0.10;;;0.10;;
16300;SDS011;8258;51.020;4.248;2023-06-10T07:07:30;0.10;;;0.10;;
16300;SDS011;8258;51.020;4.248;2023-06-10T07:09:57;0.00;;;0.00;;
16300;SDS011;8258;51.020;4.248;2023-06-10T07:12:24;0.27;;;0.27;;
16300;SDS011;8258;51.020;4.248;2023-06-10T07:14:51;0.00;;;0.00;;
16300;SDS011;8258;51.020;4.248;2023-06-10T07:17:18;7.13;;;1.50;;
16300;SDS011;8258;51.020;4.248;2023-06-10T07:19:45;0.27;;;0.27;;
16300;SDS011;8258;51.020;4.248;2023-06-10T07:22:13;3.70;;;1.80;;
16300;SDS011;8258;51.020;4.248;2023-06-10T07:24:40;0.30;;;0.30;;
16300;SDS011;8258;51.020;4.248;2023-06-10T07:27:08;0.03;;;0.03;;
16300;SDS011;8258;51.020;4.248;2023-06-10T07:29:35;0.30;;;0.30;;
16300;SDS011;8258;51.020;4.248;2023-06-10T07:32:02;0.10;;;0.10;;
16300;SDS011;8258;51.020;4.248;2023-06-10T07:34:30;0.20;;;0.20;;
16300;SDS011;8258;51.020;4.248;2023-06-10T07:36:57;0.10;;;0.10;;
16300;SDS011;8258;51.020;4.248;2023-06-10T07:39:25;0.40;;;0.40;;
16300;SDS011;8258;51.020;4.248;2023-06-10T07:41:52;0.20;;;0.20;;
16300;SDS011;8258;51.020;4.248;2023-06-10T07:44:22;0.20;;;0.20;;
16300;SDS011;8258;51.020;4.248;2023-06-10T07:46:49;2.60;;;2.50;;
16300;SDS011;8258;51.020;4.248;2023-06-10T07:49:16;1.10;;;1.00;;
16300;SDS011;8258;51.020;4.248;2023-06-10T07:51:43;0.30;;;0.30;;
16300;SDS011;8258;51.020;4.248;2023-06-10T07:54:10;0.10;;;0.10;;
16300;SDS011;8258;51.020;4.248;2023-06-10T07:56:38;1.70;;;1.60;;
16300;SDS011;8258;51.020;4.248;2023-06-10T07:59:05;0.97;;;0.97;;
16300;SDS011;8258;51.020;4.248;2023-06-10T08:01:32;0.87;;;0.63;;
16300;SDS011;8258;51.020;4.248;2023-06-10T08:06:34;0.60;;;0.60;;
16300;SDS011;8258;51.020;4.248;2023-06-10T08:09:01;0.50;;;0.50;;
16300;SDS011;8258;51.020;4.248;2023-06-10T08:11:29;0.60;;;0.60;;
16300;SDS011;8258;51.020;4.248;2023-06-10T08:13:57;0.20;;;0.20;;
16300;SDS011;8258;51.020;4.248;2023-06-10T08:16:24;0.30;;;0.30;;
16300;SDS011;8258;51.020;4.248;2023-06-10T08:18:51;0.63;;;0.63;;
16300;SDS011;8258;51.020;4.248;2023-06-10T08:21:18;0.37;;;0.37;;
16300;SDS011;8258;51.020;4.248;2023-06-10T08:23:46;0.60;;;0.60;;
16300;SDS011;8258;51.020;4.248;2023-06-10T08:26:13;7.10;;;0.83;;
16300;SDS011;8258;51.020;4.248;2023-06-10T08:28:39;1.47;;;1.07;;
16300;SDS011;8258;51.020;4.248;2023-06-10T08:31:08;0.40;;;0.40;;
16300;SDS011;8258;51.020;4.248;2023-06-10T08:33:35;1.60;;;1.50;;
16300;SDS011;8258;51.020;4.248;2023-06-10T08:36:02;0.93;;;0.90;;
16300;SDS011;8258;51.020;4.248;2023-06-10T08:38:29;1.83;;;1.83;;
16300;SDS011;8258;51.020;4.248;2023-06-10T08:40:56;0.67;;;0.60;;
16300;SDS011;8258;51.020;4.248;2023-06-10T08:43:28;0.77;;;0.77;;
16300;SDS011;8258;51.020;4.248;2023-06-10T08:46:00;0.90;;;0.90;;
16300;SDS011;8258;51.020;4.248;2023-06-10T08:48:30;0.30;;;0.30;;
16300;SDS011;8258;51.020;4.248;2023-06-10T08:50:57;0.70;;;0.70;;
16300;SDS011;8258;51.020;4.248;2023-06-10T08:53:26;0.37;;;0.37;;
16300;SDS011;8258;51.020;4.248;2023-06-10T08:55:56;0.40;;;0.40;;
16300;SDS011;8258;51.020;4.248;2023-06-10T08:58:27;1.67;;;1.60;;
16300;SDS011;8258;51.020;4.248;2023-06-10T09:00:54;0.90;;;0.90;;
16300;SDS011;8258;51.020;4.248;2023-06-10T09:03:22;0.50;;;0.50;;
16300;SDS011;8258;51.020;4.248;2023-06-10T09:05:51;0.67;;;0.67;;
16300;SDS011;8258;51.020;4.248;2023-06-10T09:08:20;0.50;;;0.50;;
16300;SDS011;8258;51.020;4.248;2023-06-10T09:10:47;1.67;;;1.50;;
16300;SDS011;8258;51.020;4.248;2023-06-10T09:13:14;1.37;;;1.37;;
16300;SDS011;8258;51.020;4.248;2023-06-10T09:15:43;0.50;;;0.50;;
16300;SDS011;8258;51.020;4.248;2023-06-10T09:18:11;0.40;;;0.40;;
16300;SDS011;8258;51.020;4.248;2023-06-10T09:20:38;1.10;;;1.10;;
16300;SDS011;8258;51.020;4.248;2023-06-10T09:23:06;0.50;;;0.50;;
16300;SDS011;8258;51.020;4.248;2023-06-10T09:25:34;0.47;;;0.47;;
16300;SDS011;8258;51.020;4.248;2023-06-10T09:28:03;1.77;;;1.67;;
16300;SDS011;8258;51.020;4.248;2023-06-10T09:30:30;0.80;;;0.80;;
16300;SDS011;8258;51.020;4.248;2023-06-10T09:32:59;0.70;;;0.70;;
16300;SDS011;8258;51.020;4.248;2023-06-10T09:35:28;0.70;;;0.70;;
16300;SDS011;8258;51.020;4.248;2023-06-10T09:37:57;0.50;;;0.50;;
16300;SDS011;8258;51.020;4.248;2023-06-10T09:40:26;0.70;;;0.70;;
16300;SDS011;8258;51.020;4.248;2023-06-10T09:42:54;0.63;;;0.63;;
16300;SDS011;8258;51.020;4.248;2023-06-10T09:45:22;1.13;;;1.13;;
16300;SDS011;8258;51.020;4.248;2023-06-10T09:47:53;1.80;;;1.73;;
16300;SDS011;8258;51.020;4.248;2023-06-10T09:50:20;0.87;;;0.87;;
16300;SDS011;8258;51.020;4.248;2023-06-10T09:52:47;0.90;;;0.90;;
16300;SDS011;8258;51.020;4.248;2023-06-10T09:55:14;1.27;;;1.17;;
16300;SDS011;8258;51.020;4.248;2023-06-10T09:57:44;0.70;;;0.70;;
16300;SDS011;8258;51.020;4.248;2023-06-10T10:00:15;1.27;;;1.27;;
16300;SDS011;8258;51.020;4.248;2023-06-10T10:02:45;0.85;;;0.85;;
16300;SDS011;8258;51.020;4.248;2023-06-10T10:05:14;1.13;;;1.13;;
16300;SDS011;8258;51.020;4.248;2023-06-10T10:07:41;1.27;;;1.20;;
16300;SDS011;8258;51.020;4.248;2023-06-10T10:10:09;0.70;;;0.70;;
16300;SDS011;8258;51.020;4.248;2023-06-10T10:12:38;2.43;;;2.27;;
16300;SDS011;8258;51.020;4.248;2023-06-10T10:15:07;1.63;;;1.63;;
16300;SDS011;8258;51.020;4.248;2023-06-10T10:17:36;0.70;;;0.70;;
16300;SDS011;8258;51.020;4.248;2023-06-10T10:20:07;1.00;;;1.00;;
16300;SDS011;8258;51.020;4.248;2023-06-10T10:22:39;1.10;;;1.07;;
16300;SDS011;8258;51.020;4.248;2023-06-10T10:25:09;0.60;;;0.60;;
16300;SDS011;8258;51.020;4.248;2023-06-10T10:27:40;2.87;;;2.60;;
16300;SDS011;8258;51.020;4.248;2023-06-10T10:30:12;1.40;;;1.40;;
16300;SDS011;8258;51.020;4.248;2023-06-10T10:32:43;1.20;;;1.20;;
16300;SDS011;8258;51.020;4.248;2023-06-10T10:35:18;1.23;;;1.23;;
16300;SDS011;8258;51.020;4.248;2023-06-10T10:37:49;1.20;;;1.20;;
16300;SDS011;8258;51.020;4.248;2023-06-10T10:40:17;1.30;;;1.20;;
16300;SDS011;8258;51.020;4.248;2023-06-10T10:42:45;1.43;;;1.40;;
16300;SDS011;8258;51.020;4.248;2023-06-10T10:45:15;1.23;;;1.23;;
16300;SDS011;8258;51.020;4.248;2023-06-10T10:47:42;1.33;;;1.33;;
16300;SDS011;8258;51.020;4.248;2023-06-10T10:50:14;0.87;;;0.87;;
16300;SDS011;8258;51.020;4.248;2023-06-10T10:52:53;1.27;;;1.27;;
16300;SDS011;8258;51.020;4.248;2023-06-10T10:55:21;1.03;;;1.03;;
16300;SDS011;8258;51.020;4.248;2023-06-10T10:57:54;3.90;;;0.97;;
16300;SDS011;8258;51.020;4.248;2023-06-10T11:00:31;1.23;;;1.23;;
16300;SDS011;8258;51.020;4.248;2023-06-10T11:03:04;1.00;;;1.00;;
16300;SDS011;8258;51.020;4.248;2023-06-10T11:05:35;1.10;;;1.10;;
16300;SDS011;8258;51.020;4.248;2023-06-10T11:08:04;0.80;;;0.80;;
16300;SDS011;8258;51.020;4.248;2023-06-10T11:10:31;0.73;;;0.73;;
16300;SDS011;8258;51.020;4.248;2023-06-10T11:12:59;1.57;;;1.20;;
16300;SDS011;8258;51.020;4.248;2023-06-10T11:15:27;1.37;;;1.37;;
16300;SDS011;8258;51.020;4.248;2023-06-10T11:18:09;2.50;;;2.30;;
16300;SDS011;8258;51.020;4.248;2023-06-10T11:23:31;0.67;;;0.67;;
16300;SDS011;8258;51.020;4.248;2023-06-10T11:29:01;0.70;;;0.70;;
16300;SDS011;8258;51.020;4.248;2023-06-10T11:31:33;2.30;;;2.10;;
16300;SDS011;8258;51.020;4.248;2023-06-10T11:34:07;0.70;;;0.70;;
16300;SDS011;8258;51.020;4.248;2023-06-10T11:36:36;0.80;;;0.80;;
16300;SDS011;8258;51.020;4.248;2023-06-10T11:39:07;0.87;;;0.87;;
16300;SDS011;8258;51.020;4.248;2023-06-10T11:41:35;1.43;;;1.43;;
16300;SDS011;8258;51.020;4.248;2023-06-10T11:44:03;1.20;;;1.10;;
16300;SDS011;8258;51.020;4.248;2023-06-10T11:46:33;1.57;;;1.57;;
16300;SDS011;8258;51.020;4.248;2023-06-10T11:49:00;0.70;;;0.70;;
16300;SDS011;8258;51.020;4.248;2023-06-10T11:51:33;0.80;;;0.80;;
16300;SDS011;8258;51.020;4.248;2023-06-10T11:54:01;1.77;;;1.67;;
16300;SDS011;8258;51.020;4.248;2023-06-10T11:56:30;1.30;;;1.20;;
16300;SDS011;8258;51.020;4.248;2023-06-10T11:58:58;0.80;;;0.80;;
16300;SDS011;8258;51.020;4.248;2023-06-10T12:01:29;1.27;;;1.17;;
16300;SDS011;8258;51.020;4.248;2023-06-10T12:03:58;2.37;;;1.63;;
16300;SDS011;8258;51.020;4.248;2023-06-10T12:06:26;1.20;;;1.20;;
16300;SDS011;8258;51.020;4.248;2023-06-10T12:08:55;0.77;;;0.77;;
16300;SDS011;8258;51.020;4.248;2023-06-10T12:11:22;2.13;;;2.03;;
16300;SDS011;8258;51.020;4.248;2023-06-10T12:13:49;1.00;;;1.00;;
16300;SDS011;8258;51.020;4.248;2023-06-10T12:16:16;1.10;;;1.10;;
16300;SDS011;8258;51.020;4.248;2023-06-10T12:18:45;2.05;;;2.03;;
16300;SDS011;8258;51.020;4.248;2023-06-10T12:21:20;1.10;;;1.10;;
16300;SDS011;8258;51.020;4.248;2023-06-10T12:24:12;1.25;;;1.25;;
16300;SDS011;8258;51.020;4.248;2023-06-10T12:26:40;1.85;;;1.85;;
16300;SDS011;8258;51.020;4.248;2023-06-10T12:31:58;0.98;;;0.98;;
16300;SDS011;8258;51.020;4.248;2023-06-10T12:34:31;4.53;;;2.85;;
16300;SDS011;8258;51.020;4.248;2023-06-10T12:37:00;1.55;;;1.55;;
16300;SDS011;8258;51.020;4.248;2023-06-10T12:39:30;1.00;;;1.00;;
16300;SDS011;8258;51.020;4.248;2023-06-10T12:41:58;2.40;;;2.30;;
16300;SDS011;8258;51.020;4.248;2023-06-10T12:44:28;2.13;;;2.03;;
16300;SDS011;8258;51.020;4.248;2023-06-10T12:46:56;1.50;;;1.40;;
16300;SDS011;8258;51.020;4.248;2023-06-10T12:49:23;2.07;;;1.97;;
16300;SDS011;8258;51.020;4.248;2023-06-10T12:51:51;2.33;;;2.23;;
16300;SDS011;8258;51.020;4.248;2023-06-10T12:54:19;1.17;;;1.17;;
16300;SDS011;8258;51.020;4.248;2023-06-10T12:56:47;2.83;;;1.03;;
16300;SDS011;8258;51.020;4.248;2023-06-10T12:59:14;1.10;;;1.10;;
16300;SDS011;8258;51.020;4.248;2023-06-10T13:01:41;1.80;;;1.63;;
16300;SDS011;8258;51.020;4.248;2023-06-10T13:04:08;1.07;;;1.07;;
16300;SDS011;8258;51.020;4.248;2023-06-10T13:06:35;3.27;;;2.57;;
16300;SDS011;8258;51.020;4.248;2023-06-10T13:09:05;1.10;;;1.10;;
16300;SDS011;8258;51.020;4.248;2023-06-10T13:11:33;0.80;;;0.80;;
16300;SDS011;8258;51.020;4.248;2023-06-10T13:14:02;1.97;;;1.93;;
16300;SDS011;8258;51.020;4.248;2023-06-10T13:16:31;1.20;;;1.20;;
16300;SDS011;8258;51.020;4.248;2023-06-10T13:18:59;0.90;;;0.90;;
16300;SDS011;8258;51.020;4.248;2023-06-10T13:21:27;0.87;;;0.87;;
16300;SDS011;8258;51.020;4.248;2023-06-10T13:23:54;3.30;;;3.00;;
16300;SDS011;8258;51.020;4.248;2023-06-10T13:26:21;1.37;;;1.27;;
16300;SDS011;8258;51.020;4.248;2023-06-10T13:28:48;0.83;;;0.83;;
16300;SDS011;8258;51.020;4.248;2023-06-10T13:31:17;1.37;;;1.37;;
16300;SDS011;8258;51.020;4.248;2023-06-10T13:33:45;1.10;;;1.10;;
16300;SDS011;8258;51.020;4.248;2023-06-10T13:36:13;1.80;;;1.80;;
16300;SDS011;8258;51.020;4.248;2023-06-10T13:38:40;2.10;;;1.47;;
16300;SDS011;8258;51.020;4.248;2023-06-10T13:41:06;1.00;;;1.00;;
16300;SDS011;8258;51.020;4.248;2023-06-10T13:43:35;1.13;;;1.13;;
16300;SDS011;8258;51.020;4.248;2023-06-10T13:46:02;0.80;;;0.80;;
16300;SDS011;8258;51.020;4.248;2023-06-10T13:48:30;2.17;;;2.07;;
16300;SDS011;8258;51.020;4.248;2023-06-10T13:50:57;2.50;;;2.40;;
16300;SDS011;8258;51.020;4.248;2023-06-10T13:53:24;1.20;;;1.20;;
16300;SDS011;8258;51.020;4.248;2023-06-10T13:55:51;1.07;;;1.07;;
16300;SDS011;8258;51.020;4.248;2023-06-10T13:58:18;2.30;;;1.93;;
16300;SDS011;8258;51.020;4.248;2023-06-10T14:00:45;1.57;;;1.47;;
16300;SDS011;8258;51.020;4.248;2023-06-10T14:03:13;0.90;;;0.90;;
16300;SDS011;8258;51.020;4.248;2023-06-10T14:05:41;0.70;;;0.70;;
16300;SDS011;8258;51.020;4.248;2023-06-10T14:08:08;1.30;;;1.30;;
16300;SDS011;8258;51.020;4.248;2023-06-10T14:10:35;0.90;;;0.90;;
16300;SDS011;8258;51.020;4.248;2023-06-10T14:13:02;1.17;;;1.17;;
16300;SDS011;8258;51.020;4.248;2023-06-10T14:15:30;0.77;;;0.77;;
16300;SDS011;8258;51.020;4.248;2023-06-10T14:17:57;1.10;;;1.10;;
16300;SDS011;8258;51.020;4.248;2023-06-10T14:20:25;1.30;;;1.30;;
16300;SDS011;8258;51.020;4.248;2023-06-10T14:22:57;1.05;;;1.05;;
16300;SDS011;8258;51.020;4.248;2023-06-10T14:25:24;1.98;;;1.88;;
16300;SDS011;8258;51.020;4.248;2023-06-10T14:27:51;0.90;;;0.90;;
16300;SDS011;8258;51.020;4.248;2023-06-10T14:30:18;0.60;;;0.60;;
16300;SDS011;8258;51.020;4.248;2023-06-10T14:32:45;1.63;;;1.53;;
16300;SDS011;8258;51.020;4.248;2023-06-10T14:35:12;3.00;;;2.80;;
16300;SDS011;8258;51.020;4.248;2023-06-10T14:37:39;0.90;;;0.90;;
16300;SDS011;8258;51.020;4.248;2023-06-10T14:40:08;1.40;;;1.40;;
16300;SDS011;8258;51.020;4.248;2023-06-10T14:42:35;0.80;;;0.80;;
16300;SDS011;8258;51.020;4.248;2023-06-10T14:45:03;0.93;;;0.93;;
16300;SDS011;8258;51.020;4.248;2023-06-10T14:47:31;2.87;;;2.43;;
16300;SDS011;8258;51.020;4.248;2023-06-10T14:49:58;0.70;;;0.70;;
16300;SDS011;8258;51.020;4.248;2023-06-10T14:52:25;1.07;;;1.07;;
16300;SDS011;8258;51.020;4.248;2023-06-10T14:54:52;1.30;;;1.30;;
16300;SDS011;8258;51.020;4.248;2023-06-10T14:57:20;1.10;;;1.10;;
16300;SDS011;8258;51.020;4.248;2023-06-10T14:59:47;1.70;;;1.70;;
16300;SDS011;8258;51.020;4.248;2023-06-10T15:02:14;0.80;;;0.80;;
16300;SDS011;8258;51.020;4.248;2023-06-10T15:04:41;1.90;;;1.80;;
16300;SDS011;8258;51.020;4.248;2023-06-10T15:07:08;0.77;;;0.77;;
16300;SDS011;8258;51.020;4.248;2023-06-10T15:09:35;1.33;;;1.33;;
16300;SDS011;8258;51.020;4.248;2023-06-10T15:12:02;1.73;;;1.73;;
16300;SDS011;8258;51.020;4.248;2023-06-10T15:14:32;1.00;;;1.00;;
16300;SDS011;8258;51.020;4.248;2023-06-10T15:16:59;2.00;;;1.90;;